createdAt,value
2022-08-26T00:05:37.408Z,0
2022-08-26T00:11:57.341Z,0
2022-08-26T00:18:22.089Z,0
2022-08-26T00:24:40.306Z,0
2022-08-26T00:31:03.362Z,0
2022-08-26T00:37:23.320Z,0
2022-08-26T00:43:47.812Z,0
2022-08-26T00:50:06.310Z,0
2022-08-26T00:56:29.328Z,0
2022-08-26T01:02:49.370Z,0
2022-08-26T01:09:12.308Z,0
2022-08-26T01:15:32.887Z,0
2022-08-26T01:21:55.306Z,0
2022-08-26T01:28:15.343Z,0
2022-08-26T01:34:38.308Z,0
2022-08-26T01:40:58.380Z,0
2022-08-26T01:47:21.315Z,0
2022-08-26T01:53:41.681Z,0
2022-08-26T02:00:04.325Z,0
2022-08-26T02:06:24.306Z,0
2022-08-26T02:12:47.340Z,0
2022-08-26T02:19:07.304Z,0
2022-08-26T02:25:30.348Z,0
2022-08-26T02:31:50.408Z,0
2022-08-26T02:38:13.315Z,0
2022-08-26T02:44:33.534Z,0
2022-08-26T02:50:56.308Z,0
2022-08-26T02:57:16.344Z,0
2022-08-26T03:03:39.311Z,0
2022-08-26T03:09:59.387Z,0
2022-08-26T03:16:22.374Z,0
2022-08-26T03:22:42.307Z,0
2022-08-26T03:29:05.310Z,0
2022-08-26T03:35:25.303Z,0
2022-08-26T03:41:48.323Z,0
2022-08-26T03:48:08.309Z,0
2022-08-26T03:54:31.351Z,0
2022-08-26T04:00:51.444Z,0
2022-08-26T04:07:14.307Z,0
2022-08-26T04:23:21.243Z,3
2022-08-26T04:29:41.296Z,9
2022-08-26T04:36:04.306Z,20
2022-08-26T04:42:25.984Z,39
2022-08-26T04:48:47.306Z,55
2022-08-26T04:55:08.348Z,65
2022-08-26T05:01:30.332Z,113
2022-08-26T05:07:50.307Z,144
2022-08-26T05:14:13.371Z,172
2022-08-26T05:20:33.306Z,190
2022-08-26T05:26:56.425Z,206
2022-08-26T05:33:16.325Z,247
2022-08-26T05:39:39.313Z,292
2022-08-26T05:45:59.366Z,319
2022-08-26T05:52:24.592Z,330
2022-08-26T05:58:42.348Z,343
2022-08-26T06:05:05.317Z,417
2022-08-26T06:11:25.313Z,558
2022-08-26T06:17:48.332Z,530
2022-08-26T06:24:08.313Z,601
2022-08-26T06:30:31.352Z,629
2022-08-26T06:36:52.273Z,732
2022-08-26T06:43:14.329Z,784
2022-08-26T06:49:34.361Z,865
2022-08-26T06:55:57.316Z,974
2022-08-26T07:02:17.867Z,897
2022-08-26T07:08:40.320Z,1007
2022-08-26T07:15:00.328Z,1183
2022-08-26T07:21:23.331Z,1276
2022-08-26T07:27:43.315Z,1364
2022-08-26T07:34:06.374Z,1285
2022-08-26T07:40:26.426Z,1280
2022-08-26T07:46:52.487Z,1472
2022-08-26T07:53:10.746Z,1562
2022-08-26T07:59:32.320Z,1633
2022-08-26T08:05:52.355Z,1962
2022-08-26T08:12:15.314Z,1373
2022-08-26T08:18:35.312Z,1107
2022-08-26T08:24:58.362Z,1322
2022-08-26T08:31:19.207Z,1900
2022-08-26T08:37:41.393Z,2107
2022-08-26T08:44:01.315Z,1720
2022-08-26T08:50:24.307Z,1495
2022-08-26T08:56:44.333Z,1723
2022-08-26T09:03:07.313Z,2154
2022-08-26T09:09:27.372Z,2000
2022-08-26T09:15:50.319Z,2013
2022-08-26T09:22:10.382Z,2017
2022-08-26T09:28:33.389Z,2245
2022-08-26T09:34:53.319Z,2576
2022-08-26T09:41:16.371Z,2626
2022-08-26T09:47:36.324Z,2503
2022-08-26T09:53:59.346Z,2610
2022-08-26T10:00:19.373Z,2684
2022-08-26T10:16:47.325Z,2121
2022-08-26T10:23:07.356Z,2082
2022-08-26T10:29:30.317Z,2451
2022-08-26T10:35:50.486Z,2615
2022-08-26T10:42:13.518Z,2368
2022-08-26T10:48:35.255Z,2272
2022-08-26T10:54:56.319Z,2046
2022-08-26T11:01:16.879Z,2904
2022-08-26T11:07:39.354Z,2666
2022-08-26T11:13:59.305Z,3517
2022-08-26T11:20:22.346Z,3074
2022-08-26T11:26:55.789Z,1963
2022-08-26T11:33:05.347Z,2154
2022-08-26T11:39:25.480Z,2463
2022-08-26T11:45:48.391Z,3836
2022-08-26T11:52:08.346Z,4383
2022-08-26T11:58:31.318Z,3390
2022-08-26T12:04:51.384Z,2543
2022-08-26T12:11:14.496Z,2366
2022-08-26T12:17:34.349Z,2841
2022-08-26T12:23:57.336Z,4407
2022-08-26T12:30:17.929Z,4745
2022-08-26T12:36:40.394Z,4772
2022-08-26T12:43:00.347Z,4502
2022-08-26T12:49:23.317Z,3354
2022-08-26T12:55:43.349Z,3308
2022-08-26T13:02:06.453Z,3797
2022-08-26T13:08:27.458Z,3410
2022-08-26T13:14:50.358Z,2508
2022-08-26T13:21:10.326Z,2051
2022-08-26T13:27:33.358Z,1883
2022-08-26T13:33:53.320Z,2532
2022-08-26T13:40:16.404Z,3192
2022-08-26T13:46:36.459Z,3022
2022-08-26T13:52:59.314Z,2482
2022-08-26T13:59:19.356Z,2435
2022-08-26T14:05:42.600Z,3090
2022-08-26T14:12:02.791Z,2165
2022-08-26T14:18:25.359Z,2304
2022-08-26T14:24:45.345Z,3493
2022-08-26T14:31:08.520Z,3104
2022-08-26T14:37:28.321Z,2223
2022-08-26T14:43:51.354Z,2416
2022-08-26T14:50:11.547Z,2371
2022-08-26T14:56:34.322Z,1486
2022-08-26T15:02:54.437Z,1742
2022-08-26T15:09:17.334Z,1781
2022-08-26T15:15:37.397Z,1580
2022-08-26T15:22:00.318Z,1585
2022-08-26T15:28:20.335Z,1455
2022-08-26T15:34:43.365Z,1911
2022-08-26T15:41:03.432Z,2397
2022-08-26T16:05:22.767Z,1914
2022-08-26T16:11:42.356Z,1561
2022-08-26T16:18:05.363Z,1515
2022-08-26T16:24:30.154Z,1525
2022-08-26T16:30:48.636Z,1212
2022-08-26T16:37:08.349Z,1209
2022-08-26T16:43:31.309Z,966
2022-08-26T16:49:51.643Z,609
2022-08-26T16:56:14.400Z,328
2022-08-26T17:02:34.430Z,309
2022-08-26T17:08:57.356Z,229
2022-08-26T17:15:17.397Z,235
2022-08-26T17:21:40.323Z,187
2022-08-26T17:28:00.604Z,194
2022-08-26T17:34:23.348Z,184
2022-08-26T17:40:43.389Z,171
2022-08-26T17:47:06.430Z,146
2022-08-26T17:53:26.375Z,116
2022-08-26T17:59:49.386Z,75
2022-08-26T18:06:09.334Z,68
2022-08-26T18:12:32.379Z,80
2022-08-26T18:18:52.418Z,52
2022-08-26T18:25:15.357Z,27
2022-08-26T18:31:35.407Z,13
2022-08-26T18:37:58.418Z,6
2022-08-26T18:44:18.440Z,2
2022-08-26T18:50:43.039Z,2
2022-08-26T18:57:01.320Z,0
2022-08-26T19:03:24.413Z,0
2022-08-26T19:09:44.442Z,0
2022-08-26T19:16:07.466Z,0
2022-08-26T19:22:27.335Z,0
2022-08-26T19:28:50.607Z,0
2022-08-26T19:35:10.355Z,0
2022-08-26T19:41:36.752Z,0
2022-08-26T19:47:53.355Z,0
2022-08-26T19:54:16.415Z,0
2022-08-26T20:00:36.429Z,0
2022-08-26T20:07:00.434Z,0
2022-08-26T20:13:19.354Z,0
2022-08-26T20:19:42.358Z,0
2022-08-26T20:26:02.405Z,0
2022-08-26T20:32:25.532Z,0
2022-08-26T20:38:45.315Z,0
2022-08-26T20:45:08.344Z,0
2022-08-26T20:51:28.353Z,0
2022-08-26T20:57:51.335Z,0
2022-08-26T21:04:11.412Z,0
2022-08-26T21:19:46.233Z,0
2022-08-26T21:26:06.316Z,0
2022-08-26T21:32:29.350Z,0
2022-08-26T21:38:49.348Z,0
2022-08-26T21:45:12.406Z,0
2022-08-26T21:51:32.375Z,0
2022-08-26T21:57:55.345Z,0
2022-08-26T22:20:52.338Z,0
2022-08-26T22:27:12.385Z,0
2022-08-26T22:33:35.392Z,0
2022-08-26T22:39:55.460Z,0
2022-08-26T22:46:18.394Z,0
2022-08-26T22:52:38.385Z,0
2022-08-26T22:59:01.373Z,0
2022-08-26T23:05:21.397Z,0
2022-08-26T23:11:44.371Z,0
2022-08-26T23:18:04.389Z,0
2022-08-26T23:24:27.377Z,0
2022-08-26T23:30:47.370Z,0
2022-08-26T23:37:10.400Z,0
2022-08-26T23:43:30.314Z,0
2022-08-26T23:49:53.406Z,0
2022-08-26T23:56:13.309Z,0
